Time;durP1;ratioP1;P1;durP2;ratioP2;P2;SDS_P1;SDS_P2;PMS_P1;PMS_P2;Temp;Humidity;BMP_temperature;BMP_pressure;BME280_temperature;BME280_humidity;BME280_pressure;Samples;Min_cycle;Max_cycle;Signal;HPM_P1;HPM_P2
2023/07/17 00:00:11;;;;;;;4.47;2.38;;;;;;;21.96;32.35;101166.41;5015100;28;20623;-82
2023/07/17 00:02:40;;;;;;;4.65;2.70;;;;;;;21.89;32.06;101169.97;5012237;28;20068;-82
2023/07/17 00:05:09;;;;;;;5.50;2.97;;;;;;;21.88;31.92;101189.66;5016276;28;20038;-81
2023/07/17 00:07:38;;;;;;;5.30;2.60;;;;;;;21.87;32.19;101183.22;5003708;28;20117;-81
2023/07/17 00:10:08;;;;;;;4.70;2.40;;;;;;;21.84;32.11;101200.38;5005382;28;20045;-81
2023/07/17 00:12:36;;;;;;;5.20;2.60;;;;;;;21.82;31.94;101199.72;5010132;28;20042;-80
2023/07/17 00:15:07;;;;;;;4.72;2.45;;;;;;;21.81;31.89;101205.47;5012134;28;20045;-81
2023/07/17 00:17:35;;;;;;;4.72;2.50;;;;;;;21.77;32.00;101221.72;5025571;28;20046;-80
2023/07/17 00:20:06;;;;;;;4.53;2.55;;;;;;;21.75;31.78;101228.56;5010991;28;20635;-81
2023/07/17 00:22:34;;;;;;;5.05;2.60;;;;;;;21.72;31.65;101235.38;5012238;28;20042;-81
2023/07/17 00:25:04;;;;;;;3.63;1.92;;;;;;;21.69;31.41;101213.50;5005742;28;20046;-81
2023/07/17 00:27:34;;;;;;;3.38;2.05;;;;;;;21.65;31.71;101184.31;5012219;28;20049;-81
2023/07/17 00:30:02;;;;;;;5.13;2.40;;;;;;;21.65;32.43;101177.88;5015412;28;20054;-83
2023/07/17 00:32:32;;;;;;;4.55;2.30;;;;;;;21.64;33.02;101162.22;5016715;28;20054;-81
2023/07/17 00:35:00;;;;;;;3.42;1.80;;;;;;;21.59;33.11;101171.19;5033613;28;20034;-82
2023/07/17 00:37:29;;;;;;;4.10;2.08;;;;;;;21.59;33.45;101181.47;5017297;28;20064;-82
2023/07/17 00:39:57;;;;;;;4.22;2.10;;;;;;;21.57;33.82;101183.59;5037250;28;20125;-82
2023/07/17 00:42:24;;;;;;;4.35;2.15;;;;;;;21.55;33.84;101197.72;5021994;28;20038;-81
2023/07/17 00:44:53;;;;;;;4.63;2.00;;;;;;;21.53;34.01;101197.91;5013907;28;20042;-81
2023/07/17 00:47:22;;;;;;;4.28;2.22;;;;;;;21.50;33.83;101195.53;5015110;28;20046;-81
2023/07/17 00:49:51;;;;;;;3.90;1.80;;;;;;;21.50;34.24;101209.47;5015778;28;20493;-81
2023/07/17 00:52:20;;;;;;;3.78;2.03;;;;;;;21.47;34.33;101215.41;5014011;28;20134;-82
2023/07/17 00:54:48;;;;;;;4.18;2.05;;;;;;;21.43;34.58;101216.88;5013868;28;20057;-81
2023/07/17 00:57:17;;;;;;;4.45;2.17;;;;;;;21.44;34.51;101214.94;5014011;28;20150;-82
2023/07/17 00:59:46;;;;;;;3.92;2.15;;;;;;;21.41;34.95;101220.91;5012048;28;20045;-81
2023/07/17 01:02:14;;;;;;;3.53;2.00;;;;;;;21.40;34.63;101230.31;5031387;28;20050;-81
2023/07/17 01:04:45;;;;;;;4.28;1.83;;;;;;;21.40;34.98;101244.25;5013944;28;20647;-81
2023/07/17 01:07:16;;;;;;;3.50;1.98;;;;;;;21.38;34.88;101254.72;5010293;28;20034;-80
2023/07/17 01:09:44;;;;;;;5.68;1.95;;;;;;;21.32;34.93;101253.59;5014460;28;20084;-81
2023/07/17 01:12:12;;;;;;;4.50;2.13;;;;;;;21.32;35.09;101255.50;5014467;28;20241;-80
2023/07/17 01:14:40;;;;;;;4.40;2.20;;;;;;;21.30;35.02;101254.81;5011228;28;20417;-80
2023/07/17 01:17:09;;;;;;;4.43;1.80;;;;;;;21.27;35.45;101255.25;5012218;28;20065;-81
2023/07/17 01:19:37;;;;;;;4.22;2.10;;;;;;;21.25;35.12;101255.38;5027714;28;20057;-81
2023/07/17 01:22:14;;;;;;;3.90;2.35;;;;;;;21.28;35.61;101255.00;5013114;28;20069;-80
2023/07/17 01:24:44;;;;;;;5.18;2.20;;;;;;;21.24;35.31;101263.94;5013220;28;20072;-81
2023/07/17 01:27:13;;;;;;;4.35;1.88;;;;;;;21.23;34.98;101248.28;5012714;28;20148;-80
2023/07/17 01:29:41;;;;;;;3.10;1.77;;;;;;;21.19;34.89;101238.63;5013493;28;20072;-80
2023/07/17 01:32:09;;;;;;;2.70;1.63;;;;;;;21.17;34.90;101236.03;5013378;28;20068;-80
2023/07/17 01:34:38;;;;;;;3.78;1.70;;;;;;;21.14;34.88;101220.56;5009730;28;20034;-81
2023/07/17 01:37:06;;;;;;;3.50;1.60;;;;;;;21.13;34.67;101229.09;5009063;28;20042;-81
2023/07/17 01:39:34;;;;;;;3.47;1.70;;;;;;;21.10;35.04;101237.88;5012310;28;20132;-81
2023/07/17 01:42:05;;;;;;;3.60;1.98;;;;;;;21.10;35.04;101240.66;5013294;28;20695;-81
2023/07/17 01:44:33;;;;;;;3.42;1.80;;;;;;;21.06;34.96;101247.63;5028048;28;20049;-82
2023/07/17 01:47:00;;;;;;;3.58;1.60;;;;;;;21.03;34.58;101250.78;5016271;28;20034;-81
2023/07/17 01:49:28;;;;;;;3.72;1.80;;;;;;;21.00;34.45;101254.84;5013590;28;20136;-80
2023/07/17 01:51:57;;;;;;;4.07;1.73;;;;;;;20.97;34.35;101244.09;5013285;28;20038;-82
2023/07/17 01:54:25;;;;;;;3.05;1.52;;;;;;;20.92;34.30;101260.53;5012089;28;20045;-82
2023/07/17 01:56:53;;;;;;;3.88;1.55;;;;;;;20.89;34.17;101252.53;5017145;28;20038;-82
2023/07/17 01:59:22;;;;;;;3.45;1.70;;;;;;;20.87;33.98;101242.66;5015483;28;20049;-82
2023/07/17 02:01:50;;;;;;;4.55;1.55;;;;;;;20.81;34.40;101233.16;5018473;28;20045;-81
2023/07/17 02:04:19;;;;;;;2.60;1.45;;;;;;;20.79;34.71;101238.06;5031303;28;20046;-81
2023/07/17 02:06:47;;;;;;;3.22;1.67;;;;;;;20.76;34.42;101244.03;5011864;28;20046;-80
2023/07/17 02:09:15;;;;;;;2.83;1.40;;;;;;;20.74;34.73;101247.00;5012168;28;20046;-80
2023/07/17 02:11:43;;;;;;;3.28;1.50;;;;;;;20.73;34.62;101249.97;5013949;28;20046;-80
2023/07/17 02:14:11;;;;;;;3.30;1.33;;;;;;;20.69;34.68;101238.38;5014268;28;20501;-79
2023/07/17 02:16:40;;;;;;;2.55;1.30;;;;;;;20.70;34.89;101253.13;5012593;28;20034;-80
2023/07/17 02:19:09;;;;;;;3.30;1.50;;;;;;;20.64;34.68;101251.97;5011766;28;20042;-79
2023/07/17 02:21:36;;;;;;;3.40;1.40;;;;;;;20.61;34.84;101257.06;5029545;28;20402;-81
2023/07/17 02:24:06;;;;;;;3.42;1.27;;;;;;;20.59;35.12;101253.59;5012670;28;20048;-81
2023/07/17 02:26:34;;;;;;;2.38;1.42;;;;;;;20.57;34.90;101255.69;5002763;28;20070;-80
2023/07/17 02:29:02;;;;;;;2.65;1.30;;;;;;;20.53;35.04;101257.13;5005256;28;20050;-81
2023/07/17 02:31:30;;;;;;;2.85;1.38;;;;;;;20.50;35.45;101258.38;5010875;28;20046;-80
2023/07/17 02:34:00;;;;;;;3.28;1.60;;;;;;;20.52;35.62;101252.63;5012408;28;20413;-80
2023/07/17 02:36:29;;;;;;;2.53;1.40;;;;;;;20.47;35.65;101242.03;5009136;28;20072;-81
2023/07/17 02:38:57;;;;;;;2.92;1.40;;;;;;;20.47;35.94;101236.47;5013721;28;20584;-82
2023/07/17 02:41:25;;;;;;;2.78;1.42;;;;;;;20.47;35.71;101244.81;5012788;28;20038;-81
2023/07/17 02:43:53;;;;;;;2.55;1.45;;;;;;;20.45;35.95;101241.38;5011412;28;20046;-81
2023/07/17 02:46:20;;;;;;;2.58;1.20;;;;;;;20.45;35.79;101232.19;5014574;28;20062;-83
2023/07/17 02:48:48;;;;;;;3.90;1.40;;;;;;;20.45;35.75;101234.97;5029734;28;20046;-81
2023/07/17 02:51:18;;;;;;;2.83;1.50;;;;;;;20.46;35.95;101242.22;5012081;28;20046;-81
2023/07/17 02:53:47;;;;;;;3.05;1.50;;;;;;;20.43;35.61;101239.84;5006709;28;20049;-82
2023/07/17 02:56:15;;;;;;;3.20;1.63;;;;;;;20.43;36.08;101249.06;5012278;28;20092;-82
2023/07/17 02:58:44;;;;;;;3.58;1.48;;;;;;;20.43;35.61;101259.31;5012057;28;20034;-81
2023/07/17 03:01:11;;;;;;;3.58;1.30;;;;;;;20.41;35.61;101262.28;5006801;28;20458;-82
2023/07/17 03:03:39;;;;;;;2.85;1.40;;;;;;;20.40;35.91;101266.97;5030115;28;20410;-80
2023/07/17 03:06:07;;;;;;;3.92;1.58;;;;;;;20.40;35.61;101260.53;5013514;28;20041;-82
2023/07/17 03:08:37;;;;;;;3.35;1.65;;;;;;;20.42;35.64;101272.34;5008214;28;20071;-82
2023/07/17 03:11:05;;;;;;;3.00;1.35;;;;;;;20.38;35.99;101262.63;5013178;28;20046;-82
2023/07/17 03:13:33;;;;;;;3.50;1.50;;;;;;;20.38;35.94;101270.97;5018364;28;20506;-82
2023/07/17 03:16:01;;;;;;;3.10;1.40;;;;;;;20.38;35.84;101271.84;5016722;28;20164;-81
2023/07/17 03:18:29;;;;;;;3.83;1.58;;;;;;;20.36;35.85;101270.34;5011723;28;20101;-82
2023/07/17 03:20:57;;;;;;;2.38;1.40;;;;;;;20.36;35.79;101273.97;5015206;28;20121;-82
2023/07/17 03:23:25;;;;;;;3.33;1.70;;;;;;;20.34;35.86;101270.50;5014373;28;20517;-81
2023/07/17 03:25:56;;;;;;;4.55;1.65;;;;;;;20.37;35.96;101269.25;5010098;28;20038;-82
2023/07/17 03:28:24;;;;;;;3.70;1.50;;;;;;;20.34;35.50;101264.09;5014647;28;20129;-82
2023/07/17 03:30:53;;;;;;;3.60;1.40;;;;;;;20.32;35.75;101268.97;5016257;28;20036;-82
2023/07/17 03:33:21;;;;;;;3.15;1.55;;;;;;;20.32;35.42;101269.84;5015042;28;20049;-83
2023/07/17 03:35:49;;;;;;;2.83;1.42;;;;;;;20.31;35.98;101270.00;5014921;28;20062;-82
2023/07/17 03:38:18;;;;;;;4.30;1.70;;;;;;;20.31;35.69;101275.56;5013062;28;20057;-82
2023/07/17 03:40:46;;;;;;;3.05;1.50;;;;;;;20.29;35.78;101277.66;5010400;28;20045;-83
2023/07/17 03:43:16;;;;;;;3.65;1.63;;;;;;;20.29;35.72;101281.31;5030638;28;20069;-83
2023/07/17 03:45:46;;;;;;;3.13;1.70;;;;;;;20.26;35.81;101283.63;5016598;28;20041;-84
2023/07/17 03:48:14;;;;;;;3.80;1.60;;;;;;;20.25;35.75;101290.22;5016293;28;20038;-82
2023/07/17 03:50:43;;;;;;;4.05;1.60;;;;;;;20.22;35.80;101282.25;5015392;28;20049;-82
2023/07/17 03:53:11;;;;;;;3.30;1.70;;;;;;;20.22;35.62;101285.03;5013036;28;20056;-83
2023/07/17 03:55:39;;;;;;;3.30;1.52;;;;;;;20.21;35.91;101295.28;5016810;28;20042;-82
2023/07/17 03:58:07;;;;;;;2.92;1.40;;;;;;;20.19;36.05;101297.41;5013857;28;20049;-82
2023/07/17 04:00:37;;;;;;;2.83;1.67;;;;;;;20.20;35.67;101293.56;5013978;28;20056;-82
2023/07/17 04:03:06;;;;;;;4.30;1.67;;;;;;;20.15;35.95;101296.03;5014552;28;20042;-82
2023/07/17 04:05:38;;;;;;;3.25;1.67;;;;;;;20.12;36.19;101288.06;5013414;28;20042;-83
2023/07/17 04:08:06;;;;;;;3.42;1.30;;;;;;;20.12;35.95;101296.41;5032475;28;20052;-83
2023/07/17 04:10:35;;;;;;;3.10;1.60;;;;;;;20.11;35.77;101294.69;5013879;28;20038;-83
2023/07/17 04:13:03;;;;;;;2.83;1.50;;;;;;;20.11;36.27;101302.16;5009831;28;20049;-83
2023/07/17 04:15:32;;;;;;;3.60;1.60;;;;;;;20.08;35.75;101300.63;5018472;28;20576;-81
2023/07/17 04:18:02;;;;;;;3.53;1.30;;;;;;;20.10;36.09;101306.00;5021537;28;20096;-81
2023/07/17 04:20:30;;;;;;;3.35;1.60;;;;;;;20.07;36.05;101306.34;5007565;28;20068;-81
2023/07/17 04:22:58;;;;;;;2.80;1.40;;;;;;;20.05;36.01;101300.97;5012182;28;20096;-82
2023/07/17 04:25:26;;;;;;;3.13;1.30;;;;;;;20.04;36.34;101306.75;5011247;28;20066;-81
2023/07/17 04:27:54;;;;;;;3.60;1.40;;;;;;;20.01;36.30;101311.63;5023398;28;20038;-81
2023/07/17 04:30:23;;;;;;;3.17;1.55;;;;;;;20.00;35.96;101309.88;5011440;28;20056;-82
2023/07/17 04:32:52;;;;;;;3.22;1.67;;;;;;;20.00;36.38;101315.44;5011805;28;20101;-81
2023/07/17 04:35:22;;;;;;;3.72;1.35;;;;;;;20.02;35.89;101329.16;5011895;28;20054;-80
2023/07/17 04:37:52;;;;;;;2.72;1.35;;;;;;;19.97;36.09;101320.50;5005663;28;20108;-81
2023/07/17 04:40:20;;;;;;;3.10;1.55;;;;;;;19.96;36.36;101327.09;5012093;28;20038;-82
2023/07/17 04:42:49;;;;;;;3.33;1.85;;;;;;;19.94;36.51;101332.00;5024318;28;20046;-81
2023/07/17 04:45:19;;;;;;;3.15;1.52;;;;;;;19.94;35.97;101332.00;5002041;28;20058;-81
2023/07/17 04:47:49;;;;;;;2.65;1.40;;;;;;;19.92;36.00;101334.94;5026027;28;20065;-80
2023/07/17 04:50:18;;;;;;;3.45;1.70;;;;;;;19.91;35.93;101341.56;5007386;28;20060;-79
2023/07/17 04:52:47;;;;;;;3.40;1.70;;;;;;;19.92;35.97;101345.19;5001953;28;20046;-81
2023/07/17 04:55:15;;;;;;;4.07;1.52;;;;;;;19.87;36.02;101348.47;5002641;28;20144;-82
2023/07/17 04:57:44;;;;;;;3.30;1.45;;;;;;;19.87;35.89;101350.41;5008901;28;20034;-81
2023/07/17 05:00:14;;;;;;;6.15;1.70;;;;;;;19.86;35.89;101354.25;5016874;28;20061;-81
2023/07/17 05:02:43;;;;;;;4.30;1.60;;;;;;;19.81;35.97;101352.00;5009524;28;20042;-81
2023/07/17 05:05:12;;;;;;;3.58;1.60;;;;;;;19.80;36.20;101358.59;5027120;28;20089;-80
2023/07/17 05:07:42;;;;;;;3.55;1.60;;;;;;;19.81;36.14;101356.69;5010357;28;20064;-81
2023/07/17 05:10:13;;;;;;;3.33;1.55;;;;;;;19.79;36.41;101356.03;5009617;28;20048;-82
2023/07/17 05:12:42;;;;;;;3.58;1.55;;;;;;;19.74;36.75;101356.56;5012673;28;20050;-82
2023/07/17 05:15:11;;;;;;;3.22;1.88;;;;;;;19.79;36.40;101356.84;5012447;28;20057;-82
2023/07/17 05:17:42;;;;;;;3.53;1.50;;;;;;;19.82;36.52;101367.63;5011665;28;20057;-82
2023/07/17 05:20:11;;;;;;;4.35;1.80;;;;;;;19.86;36.54;101360.66;5014423;28;20514;-82
2023/07/17 05:22:40;;;;;;;4.05;1.73;;;;;;;19.92;36.81;101359.09;5014889;28;20042;-83
2023/07/17 05:25:08;;;;;;;3.78;1.63;;;;;;;19.98;36.67;101364.75;5013176;28;20034;-81
2023/07/17 05:27:38;;;;;;;3.10;1.58;;;;;;;20.09;37.20;101366.25;5015156;28;20517;-82
2023/07/17 05:30:07;;;;;;;2.97;1.50;;;;;;;20.16;37.17;101366.38;5014518;28;20073;-81
2023/07/17 05:32:36;;;;;;;2.97;1.63;;;;;;;20.23;37.16;101371.00;5010521;28;20038;-82
2023/07/17 05:35:06;;;;;;;3.20;1.52;;;;;;;20.35;37.01;101371.44;5013138;28;20042;-81
2023/07/17 05:37:44;;;;;;;3.70;1.70;;;;;;;20.45;36.92;101360.91;5018704;28;20069;-81
2023/07/17 05:40:13;;;;;;;3.80;1.63;;;;;;;20.55;36.43;101369.88;5013105;28;20069;-80
2023/07/17 05:42:43;;;;;;;4.32;2.08;;;;;;;20.68;36.33;101366.50;5012987;28;20050;-82
2023/07/17 05:45:13;;;;;;;3.50;1.90;;;;;;;20.76;36.85;101374.75;5026707;28;20038;-82
2023/07/17 05:47:42;;;;;;;2.72;1.58;;;;;;;20.87;36.61;101371.50;5014863;28;20054;-81
2023/07/17 05:50:12;;;;;;;3.67;1.85;;;;;;;20.99;36.03;101372.78;5013711;28;20470;-79
2023/07/17 05:52:40;;;;;;;4.22;1.75;;;;;;;21.09;36.07;101384.50;5012991;28;20049;-81
2023/07/17 05:55:11;;;;;;;3.47;1.73;;;;;;;21.20;35.96;101382.28;5008412;28;20037;-81
2023/07/17 05:57:43;;;;;;;3.70;1.58;;;;;;;21.29;35.64;101382.03;5017300;28;20073;-81
2023/07/17 06:00:16;;;;;;;4.45;1.95;;;;;;;21.39;35.50;101387.31;5006078;28;20048;-82
2023/07/17 06:02:45;;;;;;;4.18;1.77;;;;;;;21.46;35.26;101391.91;5030700;28;20046;-81
2023/07/17 06:05:14;;;;;;;3.60;2.08;;;;;;;21.56;35.63;101391.63;5013266;28;20469;-81
2023/07/17 06:07:43;;;;;;;4.80;2.00;;;;;;;21.64;35.47;101397.09;5015094;28;20425;-82
2023/07/17 06:10:12;;;;;;;4.95;2.53;;;;;;;21.72;35.13;101405.34;5012304;28;20125;-80
2023/07/17 06:12:41;;;;;;;4.32;1.80;;;;;;;21.79;34.75;101406.28;5012824;28;20042;-81
2023/07/17 06:15:13;;;;;;;4.15;1.85;;;;;;;21.89;34.48;101411.53;5012124;28;20085;-80
2023/07/17 06:17:41;;;;;;;4.57;2.05;;;;;;;21.95;34.48;101413.56;5029954;28;20049;-80
2023/07/17 06:20:12;;;;;;;4.05;1.85;;;;;;;22.03;34.35;101416.25;5014369;28;20045;-82
2023/07/17 06:22:41;;;;;;;4.78;2.30;;;;;;;22.10;34.43;101419.97;5020482;28;20049;-82
2023/07/17 06:25:10;;;;;;;4.43;2.20;;;;;;;22.17;34.35;101420.94;5009005;28;20043;-82
2023/07/17 06:27:38;;;;;;;4.68;2.20;;;;;;;22.25;33.91;101420.81;5018090;28;20069;-81
2023/07/17 06:30:08;;;;;;;3.97;1.95;;;;;;;22.34;34.02;101423.47;5029299;28;20038;-82
2023/07/17 06:32:38;;;;;;;4.68;2.53;;;;;;;22.41;33.94;101427.19;5011672;28;20269;-81
2023/07/17 06:35:07;;;;;;;5.07;2.33;;;;;;;22.47;33.74;101424.47;5013535;28;20049;-82
2023/07/17 06:37:36;;;;;;;4.97;2.50;;;;;;;22.52;33.56;101426.63;5014613;28;20100;-81
2023/07/17 06:40:05;;;;;;;4.53;2.20;;;;;;;22.60;33.20;101430.19;5013386;28;20041;-81
2023/07/17 06:42:33;;;;;;;4.60;2.50;;;;;;;22.67;33.10;101429.41;5014640;28;20117;-81
2023/07/17 06:45:01;;;;;;;4.47;2.13;;;;;;;22.71;33.16;101434.38;5018161;28;20065;-81
2023/07/17 06:47:30;;;;;;;4.97;2.50;;;;;;;22.77;32.74;101441.94;5016913;28;20118;-83
2023/07/17 06:50:07;;;;;;;4.13;2.08;;;;;;;22.86;32.72;101451.03;5020364;28;20042;-81
2023/07/17 06:52:38;;;;;;;4.15;2.20;;;;;;;22.89;32.77;101440.34;5023813;28;20041;-82
2023/07/17 06:55:08;;;;;;;3.78;2.08;;;;;;;22.96;32.70;101448.75;5017721;28;20506;-78
2023/07/17 06:57:36;;;;;;;6.03;2.10;;;;;;;22.98;32.55;101436.34;5020836;28;20399;-79
2023/07/17 07:00:06;;;;;;;4.10;2.17;;;;;;;23.05;32.49;101429.94;5015668;28;20720;-78
2023/07/17 07:02:35;;;;;;;5.22;2.20;;;;;;;23.09;32.44;101437.69;5018456;28;20401;-77
2023/07/17 07:05:07;;;;;;;3.75;2.15;;;;;;;23.17;32.16;101432.00;5008533;28;20142;-77
2023/07/17 07:07:35;;;;;;;5.25;2.25;;;;;;;23.20;32.32;101436.31;5012018;28;20582;-79
2023/07/17 07:10:03;;;;;;;4.22;2.10;;;;;;;23.26;32.18;101438.28;5003308;28;20066;-78
2023/07/17 07:12:31;;;;;;;3.83;1.90;;;;;;;23.31;32.00;101445.00;5010996;28;20048;-78
2023/07/17 07:14:59;;;;;;;5.20;2.35;;;;;;;23.37;31.87;101449.75;5009025;28;20062;-78
2023/07/17 07:17:27;;;;;;;4.43;2.40;;;;;;;23.43;31.63;101445.28;5010705;28;20053;-77
2023/07/17 07:19:55;;;;;;;3.58;2.08;;;;;;;23.49;31.53;101449.19;5011342;28;20050;-79
2023/07/17 07:22:28;;;;;;;4.82;2.30;;;;;;;23.58;31.10;101454.38;5014317;28;20513;-79
2023/07/17 07:24:57;;;;;;;3.60;2.20;;;;;;;23.62;31.60;101452.06;5017109;28;20034;-79
2023/07/17 07:27:26;;;;;;;4.97;2.20;;;;;;;23.69;31.21;101455.75;5011134;28;20046;-79
2023/07/17 07:29:54;;;;;;;4.65;2.58;;;;;;;23.75;30.76;101461.38;5011281;28;20117;-79
2023/07/17 07:32:22;;;;;;;5.05;2.67;;;;;;;23.80;30.40;101451.53;5016964;28;20041;-80
2023/07/17 07:34:50;;;;;;;5.20;2.63;;;;;;;23.83;30.43;101454.78;5020779;28;20050;-79
2023/07/17 07:37:18;;;;;;;4.85;2.53;;;;;;;23.85;30.76;101465.75;5013644;28;20318;-80
2023/07/17 07:39:47;;;;;;;4.38;2.42;;;;;;;23.90;30.10;101461.28;5015031;28;20053;-80
2023/07/17 07:42:16;;;;;;;4.65;2.40;;;;;;;23.93;30.09;101462.78;5017426;28;20049;-82
2023/07/17 07:44:44;;;;;;;5.30;3.03;;;;;;;23.96;29.79;101465.16;5015253;28;20108;-81
2023/07/17 07:47:12;;;;;;;4.15;2.28;;;;;;;23.98;29.66;101466.69;5013750;28;20054;-81
2023/07/17 07:49:40;;;;;;;4.68;2.50;;;;;;;24.00;29.39;101456.16;5010950;28;20559;-81
2023/07/17 07:52:09;;;;;;;3.88;2.17;;;;;;;24.00;29.49;101461.72;5008978;28;20041;-80
2023/07/17 07:54:36;;;;;;;4.93;2.78;;;;;;;24.02;29.85;101464.31;5011442;28;20042;-81
2023/07/17 07:57:07;;;;;;;5.93;2.70;;;;;;;24.07;29.14;101464.59;5012053;28;20053;-80
2023/07/17 07:59:35;;;;;;;4.75;2.40;;;;;;;24.04;29.22;101465.84;5015527;28;20485;-82
2023/07/17 08:02:06;;;;;;;4.95;2.50;;;;;;;24.07;29.39;101473.81;5015733;28;20026;-81
2023/07/17 08:04:38;;;;;;;5.18;2.47;;;;;;;24.10;29.26;101466.94;5009024;28;20542;-82
2023/07/17 08:07:07;;;;;;;4.67;2.63;;;;;;;24.08;29.35;101474.66;5016855;28;20046;-81
2023/07/17 08:09:37;;;;;;;4.63;2.45;;;;;;;24.11;29.31;101472.34;5013533;28;20048;-81
2023/07/17 08:12:08;;;;;;;5.60;2.80;;;;;;;24.17;29.02;101475.34;5015555;28;20069;-80
2023/07/17 08:14:36;;;;;;;4.60;2.88;;;;;;;24.15;29.07;101470.81;5015335;28;20046;-82
2023/07/17 08:17:04;;;;;;;5.13;2.72;;;;;;;24.17;28.77;101476.22;5015252;28;20100;-82
2023/07/17 08:19:32;;;;;;;5.53;2.92;;;;;;;24.18;28.29;101471.50;5011757;28;20038;-82
2023/07/17 08:22:00;;;;;;;5.00;2.78;;;;;;;24.20;28.48;101477.75;5012335;28;20045;-81
2023/07/17 08:24:29;;;;;;;4.80;2.55;;;;;;;24.20;28.27;101477.75;5007742;28;20472;-82
2023/07/17 08:26:57;;;;;;;4.68;2.88;;;;;;;24.21;28.58;101476.66;5015269;28;20095;-82
2023/07/17 08:29:31;;;;;;;5.22;2.67;;;;;;;24.22;28.35;101481.19;5011887;28;20052;-83
2023/07/17 08:31:59;;;;;;;4.80;2.47;;;;;;;24.19;28.43;101476.00;5025320;28;20440;-83
2023/07/17 08:34:29;;;;;;;4.93;2.63;;;;;;;24.20;28.45;101475.81;5012873;28;20065;-82
2023/07/17 08:36:57;;;;;;;5.25;2.58;;;;;;;24.21;28.53;101473.88;5013129;28;20042;-81
2023/07/17 08:39:25;;;;;;;4.70;2.53;;;;;;;24.24;28.65;101476.25;5014981;28;20049;-81
2023/07/17 08:41:53;;;;;;;3.47;2.13;;;;;;;24.26;28.12;101480.56;5015396;28;20034;-82
2023/07/17 08:44:22;;;;;;;4.97;2.70;;;;;;;24.31;27.85;101471.56;5015411;28;20042;-82
2023/07/17 08:46:52;;;;;;;4.88;2.72;;;;;;;24.33;27.85;101478.63;5010073;28;20054;-81
2023/07/17 08:49:29;;;;;;;4.78;2.80;;;;;;;24.33;27.70;101484.22;5014681;28;20050;-81
2023/07/17 08:52:00;;;;;;;5.85;2.92;;;;;;;24.35;27.48;101490.53;5008203;28;20043;-81
2023/07/17 08:54:31;;;;;;;5.90;2.90;;;;;;;24.36;27.33;101477.41;5007475;28;20066;-82
2023/07/17 08:57:04;;;;;;;4.55;2.80;;;;;;;24.38;27.14;101484.50;5011780;28;20049;-82
2023/07/17 08:59:37;;;;;;;5.07;2.88;;;;;;;24.41;27.17;101488.81;5014777;28;20164;-81
2023/07/17 09:02:10;;;;;;;4.85;2.67;;;;;;;24.41;27.32;101486.00;5018724;28;20374;-81
2023/07/17 09:04:38;;;;;;;5.97;3.05;;;;;;;24.40;27.09;101481.50;5015903;28;20504;-82
2023/07/17 09:07:06;;;;;;;5.97;2.85;;;;;;;24.43;26.98;101478.28;5017551;28;20048;-82
2023/07/17 09:09:34;;;;;;;4.95;2.70;;;;;;;24.43;26.74;101472.69;5016634;28;20076;-82
2023/07/17 09:12:11;;;;;;;5.45;3.28;;;;;;;24.47;26.71;101482.41;5016781;28;20501;-82
2023/07/17 09:14:40;;;;;;;5.82;3.17;;;;;;;24.45;26.86;101481.72;5017902;28;20498;-83
2023/07/17 09:17:11;;;;;;;5.57;2.92;;;;;;;24.44;26.57;101492.06;5020442;28;20405;-82
2023/07/17 09:19:39;;;;;;;5.38;2.78;;;;;;;24.39;26.58;101480.66;5033188;28;20057;-82
2023/07/17 09:22:08;;;;;;;4.57;2.75;;;;;;;24.37;26.31;101490.31;5017154;28;20116;-82
2023/07/17 09:24:37;;;;;;;5.38;2.72;;;;;;;24.33;26.31;101489.81;5018177;28;20042;-82
2023/07/17 09:27:07;;;;;;;6.15;3.17;;;;;;;24.30;26.26;101490.28;5022820;28;20047;-82
2023/07/17 09:29:41;;;;;;;6.18;2.75;;;;;;;24.29;25.93;101493.28;5020029;28;20072;-82
2023/07/17 09:32:19;;;;;;;5.00;2.72;;;;;;;24.26;26.10;101494.53;5013320;28;20073;-82
2023/07/17 09:34:52;;;;;;;5.28;3.25;;;;;;;24.24;26.06;101487.47;5020951;28;20045;-82
2023/07/17 09:37:20;;;;;;;5.38;2.78;;;;;;;24.21;26.71;101487.88;5018710;28;20537;-81
2023/07/17 09:39:52;;;;;;;4.13;2.70;;;;;;;24.26;26.42;101488.94;5015682;28;20436;-81
2023/07/17 09:42:24;;;;;;;;;;;;;;;23.95;27.43;101497.84;5016733;28;20046;-81
2023/07/17 09:44:53;;;;;;;4.95;2.90;;;;;;;24.26;26.54;101493.69;5019807;28;20008;-81
2023/07/17 09:47:24;;;;;;;5.40;2.47;;;;;;;24.36;26.52;101496.97;5008881;28;20520;-81
2023/07/17 09:49:52;;;;;;;3.80;2.40;;;;;;;24.36;25.93;101492.25;5013921;28;20046;-81
2023/07/17 09:52:21;;;;;;;4.78;2.45;;;;;;;24.40;25.98;101498.31;5010460;28;20057;-81
2023/07/17 09:54:50;;;;;;;5.22;2.60;;;;;;;24.42;26.12;101494.19;5014669;28;20045;-82
2023/07/17 09:57:27;;;;;;;4.93;2.58;;;;;;;24.45;25.93;101491.00;5016940;28;20065;-83
2023/07/17 09:59:57;;;;;;;5.30;2.70;;;;;;;24.46;25.87;101497.44;5009909;28;20030;-81
2023/07/17 10:02:33;;;;;;;4.65;2.40;;;;;;;24.49;26.17;101495.06;5030258;28;20037;-82
2023/07/17 10:05:06;;;;;;;4.95;2.63;;;;;;;24.51;25.97;101492.94;5014390;28;20096;-83
2023/07/17 10:07:37;;;;;;;5.45;2.65;;;;;;;24.55;26.09;101500.91;5013346;28;20803;-82
2023/07/17 10:10:06;;;;;;;6.00;2.83;;;;;;;24.57;25.76;101498.78;5011443;28;20038;-82
2023/07/17 10:12:40;;;;;;;5.78;3.13;;;;;;;24.59;25.63;101494.66;5016268;28;20042;-82
2023/07/17 10:15:14;;;;;;;4.30;2.60;;;;;;;24.60;25.83;101495.53;5006980;28;20049;-82
2023/07/17 10:17:43;;;;;;;4.82;2.67;;;;;;;24.64;25.41;101486.53;5012221;28;20049;-82
2023/07/17 10:20:13;;;;;;;5.20;2.78;;;;;;;24.65;25.44;101493.81;5018301;28;20498;-83
2023/07/17 10:22:44;;;;;;;4.53;2.80;;;;;;;24.67;25.44;101504.81;5017483;28;20042;-82
2023/07/17 10:25:28;;;;;;;4.32;2.65;;;;;;;24.67;25.22;101491.69;5016488;28;20054;-82
2023/07/17 10:27:58;;;;;;;5.80;3.03;;;;;;;24.69;25.61;101486.72;5029827;28;20046;-82
2023/07/17 10:30:29;;;;;;;4.45;2.70;;;;;;;24.73;25.50;101496.41;5016413;28;20042;-82
2023/07/17 10:33:07;;;;;;;5.80;3.10;;;;;;;24.75;25.37;101499.88;5020025;28;20045;-81
2023/07/17 10:35:46;;;;;;;4.68;2.95;;;;;;;24.79;25.01;101498.38;5020586;28;20053;-81
2023/07/17 10:38:16;;;;;;;5.72;2.80;;;;;;;24.81;25.29;101500.97;5015614;28;20050;-84
2023/07/17 10:40:46;;;;;;;6.35;3.17;;;;;;;24.82;25.06;101499.88;5012353;28;20133;-80
2023/07/17 10:43:16;;;;;;;5.72;3.00;;;;;;;24.85;24.84;101491.94;5013763;28;20560;-81
2023/07/17 10:45:46;;;;;;;5.43;3.25;;;;;;;24.87;24.83;101492.59;5014569;28;20156;-81
2023/07/17 10:48:17;;;;;;;5.85;3.30;;;;;;;24.91;24.66;101490.19;5016315;28;20042;-81
2023/07/17 10:50:51;;;;;;;5.57;3.15;;;;;;;24.94;24.81;101497.34;5026919;28;20042;-82
2023/07/17 10:53:20;;;;;;;5.70;3.10;;;;;;;24.94;24.83;101488.94;5019754;28;20042;-81
2023/07/17 10:55:48;;;;;;;4.68;2.88;;;;;;;24.98;24.59;101496.69;5014534;28;20038;-81
2023/07/17 10:58:19;;;;;;;5.00;3.00;;;;;;;25.01;24.35;101492.63;5016288;28;20042;-82
2023/07/17 11:00:47;;;;;;;5.72;3.08;;;;;;;25.01;24.12;101501.88;5015491;28;20037;-82
2023/07/17 11:03:18;;;;;;;4.90;3.08;;;;;;;25.03;24.09;101499.72;5037780;28;20050;-81
2023/07/17 11:05:47;;;;;;;4.70;2.92;;;;;;;25.01;24.07;101498.22;5018835;28;20049;-81
2023/07/17 11:08:18;;;;;;;4.80;2.80;;;;;;;25.02;23.95;101500.81;5015718;28;20076;-82
2023/07/17 11:10:46;;;;;;;4.50;2.75;;;;;;;24.99;23.93;101498.41;5029669;28;20042;-83
2023/07/17 11:13:14;;;;;;;5.15;2.97;;;;;;;24.98;23.93;101504.25;5012839;28;20100;-83
2023/07/17 11:15:44;;;;;;;5.03;3.05;;;;;;;24.99;24.06;101514.38;5017385;28;20065;-83
2023/07/17 11:18:11;;;;;;;4.70;3.08;;;;;;;24.94;23.91;101512.22;5017473;28;20041;-83
2023/07/17 11:20:41;;;;;;;5.43;3.28;;;;;;;24.93;23.59;101502.06;5019543;28;20052;-83
2023/07/17 11:23:12;;;;;;;5.43;2.70;;;;;;;24.92;23.72;101510.66;5015089;28;20092;-84
2023/07/17 11:25:42;;;;;;;5.30;2.75;;;;;;;24.84;24.05;101507.00;5014043;28;20425;-82
2023/07/17 11:28:11;;;;;;;6.45;3.25;;;;;;;24.81;24.14;101499.00;5032734;28;20095;-83
2023/07/17 11:30:39;;;;;;;6.88;3.50;;;;;;;24.78;24.24;101498.59;5014171;28;20041;-83
2023/07/17 11:33:09;;;;;;;6.05;3.30;;;;;;;24.74;24.05;101497.28;5009097;28;20042;-83